createdAt,value
2023-05-06T00:00:00.118Z,13.39
2023-05-06T00:00:13.208Z,13.39
2023-05-06T00:00:22.675Z,13.38
2023-05-06T00:00:31.973Z,13.30
2023-05-06T00:00:43.012Z,13.33
2023-05-06T00:00:52.854Z,13.32
2023-05-06T00:01:02.552Z,13.35
2023-05-06T00:01:17.410Z,13.34
2023-05-06T00:01:25.539Z,13.37
2023-05-06T00:01:33.802Z,13.33
2023-05-06T00:01:43.743Z,13.20
2023-05-06T00:01:58.462Z,13.34
2023-05-06T00:02:06.246Z,13.29
2023-05-06T00:02:26.662Z,13.33
2023-05-06T00:02:34.017Z,13.13
2023-05-06T00:02:42.190Z,13.31
2023-05-06T00:02:49.713Z,13.15
2023-05-06T00:03:04.541Z,13.23
2023-05-06T00:03:14.363Z,13.19
2023-05-06T00:03:29.912Z,13.33
2023-05-06T00:03:37.432Z,13.20
2023-05-06T00:03:44.931Z,13.24
2023-05-06T00:03:52.460Z,13.29
2023-05-06T00:04:11.314Z,13.16
2023-05-06T00:04:19.050Z,13.20
2023-05-06T00:04:34.472Z,13.27
2023-05-06T00:04:41.861Z,13.21
2023-05-06T00:04:49.164Z,13.28
2023-05-06T00:04:56.975Z,13.26
2023-05-06T00:05:12.318Z,13.14
2023-05-06T00:05:20.389Z,13.13
2023-05-06T00:05:37.471Z,13.09
2023-05-06T00:05:46.328Z,13.23
2023-05-06T00:05:54.729Z,13.22
2023-05-06T00:06:05.645Z,13.21
2023-05-06T00:06:12.880Z,13.17
2023-05-06T00:06:27.673Z,13.13
2023-05-06T00:06:42.769Z,13.09
2023-05-06T00:06:50.056Z,13.04
2023-05-06T00:06:57.568Z,12.81
2023-05-06T00:07:14.724Z,13.10
2023-05-06T00:07:22.469Z,13.02
2023-05-06T00:07:29.805Z,13.17
2023-05-06T00:07:47.016Z,13.15
2023-05-06T00:07:54.614Z,12.71
2023-05-06T00:08:03.736Z,13.17
2023-05-06T00:08:18.293Z,13.22
2023-05-06T00:08:26.397Z,13.28
2023-05-06T00:08:33.679Z,13.30
2023-05-06T00:08:50.656Z,13.26
2023-05-06T00:08:57.908Z,13.25
2023-05-06T00:09:05.331Z,13.27
2023-05-06T00:09:20.024Z,13.20
2023-05-06T00:09:28.203Z,13.25
2023-05-06T00:09:35.434Z,13.18
2023-05-06T00:09:57.017Z,13.30
2023-05-06T00:10:06.749Z,13.24
2023-05-06T00:10:14.198Z,13.30
2023-05-06T00:10:21.559Z,13.32
2023-05-06T00:10:31.528Z,13.32
2023-05-06T00:10:38.662Z,13.27
2023-05-06T00:11:00.261Z,13.29
2023-05-06T00:11:07.516Z,13.19
2023-05-06T00:11:14.857Z,13.20
2023-05-06T00:11:22.034Z,13.30
2023-05-06T00:11:36.742Z,13.23
2023-05-06T00:11:43.955Z,13.23
2023-05-06T00:12:06.364Z,13.22
2023-05-06T00:12:16.240Z,13.30
2023-05-06T00:12:23.440Z,13.29
2023-05-06T00:12:30.875Z,13.24
2023-05-06T00:12:38.135Z,13.30
2023-05-06T00:12:45.687Z,13.19
2023-05-06T00:13:08.373Z,13.27
2023-05-06T00:13:25.867Z,13.23
2023-05-06T00:13:33.157Z,13.29
2023-05-06T00:13:43.957Z,13.14
2023-05-06T00:13:54.205Z,13.17
2023-05-06T00:14:01.443Z,13.11
2023-05-06T00:14:08.605Z,13.30
2023-05-06T00:14:30.296Z,13.14
2023-05-06T00:14:37.643Z,13.03
2023-05-06T00:14:44.921Z,13.22
2023-05-06T00:15:01.040Z,12.98
2023-05-06T00:15:09.171Z,13.16
2023-05-06T00:15:19.364Z,13.14
2023-05-06T00:15:34.081Z,13.16
2023-05-06T00:15:41.416Z,13.23
2023-05-06T00:15:48.610Z,13.27
2023-05-06T00:16:07.858Z,13.27
2023-05-06T00:16:15.481Z,13.13
2023-05-06T00:16:23.742Z,13.10
2023-05-06T00:16:38.072Z,13.20
2023-05-06T00:16:47.476Z,12.94
2023-05-06T00:16:54.916Z,13.19
2023-05-06T00:17:12.032Z,13.14
2023-05-06T00:17:19.290Z,13.21
2023-05-06T00:17:26.623Z,13.20
2023-05-06T00:17:41.060Z,13.05
2023-05-06T00:17:48.280Z,13.17
2023-05-06T00:17:55.944Z,12.88
2023-05-06T00:18:22.596Z,13.08
2023-05-06T00:18:31.880Z,13.16
2023-05-06T00:18:39.099Z,13.20
2023-05-06T00:18:46.307Z,13.09
2023-05-06T00:18:53.618Z,13.21
2023-05-06T00:19:00.822Z,13.09
2023-05-06T00:19:31.493Z,13.18
2023-05-06T00:19:40.381Z,13.10
2023-05-06T00:19:48.358Z,13.02
2023-05-06T00:19:56.540Z,13.03
2023-05-06T00:20:07.176Z,13.09
2023-05-06T00:20:15.031Z,13.15
2023-05-06T00:20:38.873Z,13.17
2023-05-06T00:20:46.178Z,13.12
2023-05-06T00:20:53.400Z,13.11
2023-05-06T00:21:00.959Z,13.13
2023-05-06T00:21:10.134Z,13.20
2023-05-06T00:21:17.463Z,13.11
2023-05-06T00:21:42.058Z,13.20
2023-05-06T00:21:49.592Z,13.09
2023-05-06T00:21:57.472Z,13.07
2023-05-06T00:22:05.876Z,13.16
2023-05-06T00:22:13.021Z,13.16
2023-05-06T00:22:20.416Z,13.12
2023-05-06T00:22:48.957Z,13.07
2023-05-06T00:22:56.400Z,13.05
2023-05-06T00:23:03.598Z,13.12
2023-05-06T00:23:13.469Z,13.16
2023-05-06T00:23:20.743Z,13.14
2023-05-06T00:23:27.918Z,13.10
2023-05-06T00:23:49.383Z,12.98
2023-05-06T00:23:56.684Z,13.13
2023-05-06T00:24:04.487Z,13.15
2023-05-06T00:24:19.512Z,13.16
2023-05-06T00:24:26.775Z,13.07
2023-05-06T00:24:38.646Z,13.14
2023-05-06T00:24:53.006Z,13.17
2023-05-06T00:25:00.305Z,12.90
2023-05-06T00:25:08.339Z,13.14
2023-05-06T00:25:23.017Z,13.16
2023-05-06T00:25:30.219Z,13.14
2023-05-06T00:25:41.436Z,13.10
2023-05-06T00:25:55.985Z,13.16
2023-05-06T00:26:03.201Z,13.10
2023-05-06T00:26:10.767Z,12.93
2023-05-06T00:26:28.444Z,13.08
2023-05-06T00:26:35.933Z,13.13
2023-05-06T00:26:43.229Z,13.09
2023-05-06T00:27:00.488Z,13.12
2023-05-06T00:27:09.330Z,12.98
2023-05-06T00:27:16.626Z,12.98
2023-05-06T00:27:32.388Z,13.10
2023-05-06T00:27:39.699Z,13.14
2023-05-06T00:27:47.164Z,13.14
2023-05-06T00:28:04.685Z,13.05
2023-05-06T00:28:13.777Z,13.15
2023-05-06T00:28:21.094Z,13.11
2023-05-06T00:28:35.475Z,13.07
2023-05-06T00:28:42.746Z,13.11
2023-05-06T00:28:49.939Z,13.16
2023-05-06T00:29:12.873Z,13.08
2023-05-06T00:29:20.093Z,13.13
2023-05-06T00:29:28.114Z,13.13
2023-05-06T00:29:38.235Z,13.02
2023-05-06T00:29:46.461Z,13.03
2023-05-06T00:29:53.691Z,13.11
2023-05-06T00:30:13.212Z,13.14
2023-05-06T00:30:20.449Z,12.98
2023-05-06T00:30:36.602Z,13.12
2023-05-06T00:30:43.809Z,13.12
2023-05-06T00:30:51.541Z,13.12
2023-05-06T00:31:04.105Z,13.11
2023-05-06T00:31:18.777Z,12.94
2023-05-06T00:31:26.019Z,12.86
2023-05-06T00:31:41.231Z,13.10
2023-05-06T00:31:48.532Z,13.13
2023-05-06T00:31:56.172Z,13.08
2023-05-06T00:32:06.400Z,12.98
2023-05-06T00:32:20.778Z,13.04
2023-05-06T00:32:29.358Z,13.08
2023-05-06T00:32:47.972Z,13.05
2023-05-06T00:32:56.407Z,13.03
2023-05-06T00:33:03.688Z,13.08
2023-05-06T00:33:11.027Z,12.95
2023-05-06T00:33:26.356Z,13.06
2023-05-06T00:33:33.780Z,12.95
2023-05-06T00:33:48.660Z,13.02
2023-05-06T00:34:03.123Z,13.03
2023-05-06T00:34:16.067Z,13.03
2023-05-06T00:34:23.282Z,12.90
2023-05-06T00:34:30.688Z,13.05
2023-05-06T00:34:37.857Z,12.99
2023-05-06T00:34:52.602Z,13.02
2023-05-06T00:35:09.386Z,12.99
2023-05-06T00:35:20.044Z,13.02
2023-05-06T00:35:27.178Z,12.75
2023-05-06T00:35:34.363Z,12.98
2023-05-06T00:35:41.580Z,13.01
2023-05-06T00:35:56.507Z,13.04
2023-05-06T00:36:14.050Z,13.00
2023-05-06T00:36:26.588Z,13.02
2023-05-06T00:36:34.342Z,13.01
2023-05-06T00:36:43.043Z,12.73
2023-05-06T00:36:50.382Z,12.80
2023-05-06T00:36:57.636Z,12.94
2023-05-06T00:37:22.081Z,12.99
2023-05-06T00:37:29.589Z,12.89
2023-05-06T00:37:36.845Z,12.99
2023-05-06T00:37:45.955Z,12.82
2023-05-06T00:37:57.843Z,12.99
2023-05-06T00:38:09.496Z,12.97
2023-05-06T00:38:24.305Z,12.87
2023-05-06T00:38:31.648Z,12.57
2023-05-06T00:38:38.964Z,12.88
2023-05-06T00:38:46.220Z,12.89
2023-05-06T00:39:03.339Z,13.01
2023-05-06T00:39:10.686Z,12.65
2023-05-06T00:39:25.508Z,12.99
2023-05-06T00:39:35.220Z,12.88
2023-05-06T00:39:42.483Z,12.95
2023-05-06T00:39:49.741Z,12.88
2023-05-06T00:40:09.096Z,12.94
2023-05-06T00:40:16.326Z,12.99
2023-05-06T00:40:33.043Z,13.01
2023-05-06T00:40:41.655Z,12.92
2023-05-06T00:40:51.688Z,12.89
2023-05-06T00:40:58.970Z,12.65
2023-05-06T00:41:16.674Z,13.01
2023-05-06T00:41:26.215Z,12.87
2023-05-06T00:41:34.022Z,12.85
2023-05-06T00:41:42.384Z,13.03
2023-05-06T00:41:59.982Z,12.96
2023-05-06T00:42:07.243Z,12.70
2023-05-06T00:42:23.460Z,12.91
2023-05-06T00:42:33.718Z,13.03
2023-05-06T00:42:41.070Z,13.02
2023-05-06T00:42:48.212Z,12.99
2023-05-06T00:43:03.371Z,12.95
2023-05-06T00:43:10.658Z,12.94
2023-05-06T00:43:25.146Z,12.98
2023-05-06T00:43:33.885Z,12.68
2023-05-06T00:43:45.643Z,12.87
2023-05-06T00:43:52.942Z,12.80
2023-05-06T00:44:07.529Z,12.95
2023-05-06T00:44:17.526Z,12.77
2023-05-06T00:44:32.142Z,12.91
2023-05-06T00:44:39.364Z,12.97
2023-05-06T00:44:46.694Z,12.82
2023-05-06T00:44:53.942Z,12.95
2023-05-06T00:45:10.059Z,12.83
2023-05-06T00:45:17.646Z,12.90
2023-05-06T00:45:38.229Z,12.87
2023-05-06T00:45:45.751Z,12.85
2023-05-06T00:45:53.723Z,12.89
2023-05-06T00:46:03.706Z,12.86
2023-05-06T00:46:11.752Z,12.88
2023-05-06T00:46:22.062Z,12.82
2023-05-06T00:46:44.696Z,12.91
2023-05-06T00:46:51.969Z,12.85
2023-05-06T00:47:01.146Z,12.87
2023-05-06T00:47:11.261Z,12.67
2023-05-06T00:47:22.840Z,12.88
2023-05-06T00:47:30.564Z,12.86
2023-05-06T00:47:45.346Z,12.95
2023-05-06T00:47:53.409Z,12.82
2023-05-06T00:48:01.173Z,12.87
2023-05-06T00:48:18.046Z,12.89
2023-05-06T00:48:25.405Z,12.89
2023-05-06T00:48:34.758Z,12.83
2023-05-06T00:48:51.098Z,12.85
2023-05-06T00:48:58.455Z,12.94
2023-05-06T00:49:09.021Z,12.88
2023-05-06T00:49:25.352Z,12.84
2023-05-06T00:49:32.954Z,12.94
2023-05-06T00:49:40.248Z,12.85
2023-05-06T00:49:55.432Z,12.78
2023-05-06T00:50:10.762Z,12.58
2023-05-06T00:50:18.793Z,12.81
2023-05-06T00:50:28.373Z,12.88
2023-05-06T00:50:38.748Z,12.88
2023-05-06T00:50:46.131Z,12.67
2023-05-06T00:51:00.563Z,12.79
2023-05-06T00:51:15.405Z,12.73
2023-05-06T00:51:23.106Z,12.61
2023-05-06T00:51:31.094Z,12.72
2023-05-06T00:51:45.965Z,12.86
2023-05-06T00:51:57.832Z,12.80
2023-05-06T00:52:05.217Z,12.88
2023-05-06T00:52:15.462Z,12.87
2023-05-06T00:52:34.971Z,12.85
2023-05-06T00:52:42.193Z,12.76
2023-05-06T00:52:50.349Z,12.90
2023-05-06T00:52:59.225Z,12.79
2023-05-06T00:53:09.704Z,12.86
2023-05-06T00:53:21.811Z,12.78
2023-05-06T00:53:39.194Z,12.79
2023-05-06T00:53:46.966Z,12.74
2023-05-06T00:53:54.743Z,12.78
2023-05-06T00:54:02.364Z,12.71
2023-05-06T00:54:16.846Z,12.81
2023-05-06T00:54:26.486Z,12.77
2023-05-06T00:54:41.545Z,12.80
2023-05-06T00:54:49.391Z,12.84
2023-05-06T00:54:57.184Z,12.80
2023-05-06T00:55:04.861Z,12.85
2023-05-06T00:55:19.662Z,12.84
2023-05-06T00:55:29.995Z,12.79
2023-05-06T00:55:49.618Z,12.65
2023-05-06T00:55:56.926Z,12.70
2023-05-06T00:56:04.503Z,12.59
2023-05-06T00:56:11.788Z,12.71
2023-05-06T00:56:26.458Z,12.70
2023-05-06T00:56:34.239Z,12.65
2023-05-06T00:56:50.128Z,12.60
2023-05-06T00:56:57.734Z,12.65
2023-05-06T00:57:08.243Z,12.65
2023-05-06T00:57:17.081Z,12.71
2023-05-06T00:57:32.443Z,12.61
2023-05-06T00:57:40.643Z,12.80
2023-05-06T00:57:52.151Z,12.44
2023-05-06T00:57:59.661Z,12.80
2023-05-06T00:58:15.426Z,12.77
2023-05-06T00:58:23.753Z,12.71
2023-05-06T00:58:39.012Z,12.62
2023-05-06T00:58:46.476Z,12.70
2023-05-06T00:58:57.333Z,12.75
2023-05-06T00:59:06.821Z,12.75
2023-05-06T00:59:21.864Z,12.60
2023-05-06T00:59:29.394Z,12.74
2023-05-06T00:59:44.618Z,12.62
2023-05-06T00:59:51.929Z,12.73
2023-05-06T00:59:59.263Z,12.64
2023-05-06T01:00:08.268Z,12.78
2023-05-06T01:00:23.570Z,12.73
2023-05-06T01:00:32.592Z,12.74
2023-05-06T01:00:52.485Z,12.65
2023-05-06T01:01:03.368Z,12.73
2023-05-06T01:01:11.577Z,12.73
2023-05-06T01:01:19.065Z,12.64
2023-05-06T01:01:27.499Z,12.74
2023-05-06T01:01:34.843Z,12.68
2023-05-06T01:01:57.068Z,12.73
2023-05-06T01:02:04.618Z,12.77
2023-05-06T01:02:12.009Z,12.47
2023-05-06T01:02:19.303Z,12.75
2023-05-06T01:02:43.411Z,12.78
2023-05-06T01:02:56.812Z,12.78
2023-05-06T01:03:04.263Z,12.74
2023-05-06T01:03:11.683Z,12.74
2023-05-06T01:03:19.278Z,12.75
2023-05-06T01:03:27.098Z,12.73
2023-05-06T01:03:34.399Z,12.76
2023-05-06T01:03:58.894Z,12.76
2023-05-06T01:04:09.101Z,12.69
2023-05-06T01:04:16.897Z,12.64
2023-05-06T01:04:25.304Z,12.70
2023-05-06T01:04:33.862Z,12.57
2023-05-06T01:04:41.792Z,12.74
2023-05-06T01:05:04.399Z,12.72
2023-05-06T01:05:12.453Z,12.71
2023-05-06T01:05:22.488Z,12.67
2023-05-06T01:05:36.026Z,12.73
2023-05-06T01:05:54.092Z,12.65
2023-05-06T01:06:12.713Z,12.64
2023-05-06T01:06:25.341Z,12.73
2023-05-06T01:06:51.205Z,12.72
2023-05-06T01:07:06.578Z,12.57
2023-05-06T01:07:26.226Z,12.64
2023-05-06T01:07:41.399Z,12.57
2023-05-06T01:08:01.722Z,12.71
2023-05-06T01:08:15.963Z,12.68
2023-05-06T01:08:32.804Z,12.58
2023-05-06T01:08:48.087Z,12.68
2023-05-06T01:09:06.179Z,12.69
2023-05-06T01:09:21.198Z,12.65
2023-05-06T01:09:39.081Z,12.62
2023-05-06T01:09:52.322Z,12.68
2023-05-06T01:10:08.251Z,12.62
2023-05-06T01:10:28.090Z,12.63
2023-05-06T01:10:45.324Z,12.59
2023-05-06T01:10:55.938Z,12.61
2023-05-06T01:11:07.322Z,12.23
2023-05-06T01:11:20.209Z,12.51
2023-05-06T01:11:34.027Z,12.55
2023-05-06T01:11:46.370Z,12.66
2023-05-06T01:11:58.795Z,12.66
2023-05-06T01:12:16.694Z,12.73
2023-05-06T01:12:31.108Z,12.42
2023-05-06T01:12:48.723Z,12.70
2023-05-06T01:13:05.448Z,12.65
2023-05-06T01:13:17.630Z,12.39
2023-05-06T01:13:36.383Z,12.63
2023-05-06T01:13:50.570Z,12.67
2023-05-06T01:14:02.562Z,12.65
2023-05-06T01:14:20.844Z,12.41
2023-05-06T01:14:33.627Z,12.57
2023-05-06T01:14:52.572Z,12.57
2023-05-06T01:15:08.851Z,12.63
2023-05-06T01:15:22.156Z,12.64
2023-05-06T01:15:36.048Z,12.66
2023-05-06T01:15:46.205Z,12.72
2023-05-06T01:15:55.544Z,12.69
2023-05-06T01:16:08.572Z,12.63
2023-05-06T01:16:19.788Z,12.67
2023-05-06T01:16:31.004Z,12.67
2023-05-06T01:16:44.669Z,12.62
2023-05-06T01:16:55.627Z,12.56
2023-05-06T01:17:05.892Z,12.64
2023-05-06T01:17:17.100Z,12.57
2023-05-06T01:17:28.109Z,12.64
2023-05-06T01:17:42.455Z,12.60
2023-05-06T01:17:53.779Z,12.64
2023-05-06T01:18:04.918Z,12.59
2023-05-06T01:18:20.133Z,12.58
2023-05-06T01:18:31.748Z,12.52
2023-05-06T01:18:39.344Z,12.64
2023-05-06T01:18:50.229Z,12.50
2023-05-06T01:19:00.629Z,12.52
2023-05-06T01:19:16.093Z,12.54
2023-05-06T01:19:46.799Z,12.62
2023-05-06T01:19:58.802Z,12.58
2023-05-06T01:20:12.042Z,12.57
2023-05-06T01:20:22.109Z,12.60
2023-05-06T01:20:31.972Z,12.47
2023-05-06T01:20:42.768Z,12.61
2023-05-06T01:20:51.627Z,12.29
2023-05-06T01:21:00.238Z,12.49
2023-05-06T01:21:22.239Z,12.46
2023-05-06T01:21:35.009Z,12.45
2023-05-06T01:21:44.773Z,12.56
2023-05-06T01:21:55.053Z,12.57
2023-05-06T01:22:05.329Z,12.57
2023-05-06T01:22:14.108Z,12.55
2023-05-06T01:22:23.716Z,12.58
2023-05-06T01:22:42.104Z,12.61
2023-05-06T01:22:50.419Z,12.30
2023-05-06T01:22:58.028Z,12.58
2023-05-06T01:23:12.247Z,12.61
2023-05-06T01:23:20.097Z,12.55
2023-05-06T01:23:27.292Z,12.48
2023-05-06T01:23:56.092Z,12.61
2023-05-06T01:24:03.319Z,12.58
2023-05-06T01:24:10.496Z,12.51
2023-05-06T01:24:20.418Z,12.57
2023-05-06T01:24:35.869Z,12.62
2023-05-06T01:24:44.597Z,12.55
2023-05-06T01:24:58.892Z,12.53
2023-05-06T01:25:06.810Z,12.51
2023-05-06T01:25:19.466Z,12.47
2023-05-06T01:25:26.702Z,12.51
2023-05-06T01:25:42.651Z,12.31
2023-05-06T01:25:52.482Z,12.44
2023-05-06T01:25:59.998Z,12.32
2023-05-06T01:26:07.321Z,12.26
2023-05-06T01:26:22.484Z,12.48
2023-05-06T01:26:29.734Z,12.51
2023-05-06T01:26:44.458Z,12.50
2023-05-06T01:26:58.708Z,12.51
2023-05-06T01:27:06.678Z,12.51
2023-05-06T01:27:14.928Z,12.56
2023-05-06T01:27:23.405Z,12.58
2023-05-06T01:27:30.628Z,12.57
2023-05-06T01:27:48.104Z,12.52
2023-05-06T01:28:02.761Z,12.54
2023-05-06T01:28:11.836Z,12.47
2023-05-06T01:28:19.061Z,12.56
2023-05-06T01:28:26.325Z,12.56
2023-05-06T01:28:33.525Z,12.57
2023-05-06T01:28:50.708Z,12.57
2023-05-06T01:29:04.479Z,12.56
2023-05-06T01:29:12.468Z,12.51
2023-05-06T01:29:19.961Z,12.44
2023-05-06T01:29:27.524Z,12.55
2023-05-06T01:29:37.443Z,12.52
2023-05-06T01:29:54.914Z,12.54
2023-05-06T01:30:11.450Z,12.47
2023-05-06T01:30:19.978Z,12.47
2023-05-06T01:30:36.317Z,12.45
2023-05-06T01:30:54.411Z,12.54
2023-05-06T01:31:08.619Z,12.57
2023-05-06T01:31:24.185Z,12.60
2023-05-06T01:31:38.370Z,12.48
2023-05-06T01:31:50.954Z,12.54
2023-05-06T01:32:02.499Z,12.50
2023-05-06T01:32:23.921Z,12.56
2023-05-06T01:32:49.625Z,12.52
2023-05-06T01:33:08.629Z,12.45
2023-05-06T01:33:22.844Z,12.49
2023-05-06T01:33:37.752Z,12.50
2023-05-06T01:33:51.499Z,12.45
2023-05-06T01:34:09.055Z,12.51
2023-05-06T01:34:25.601Z,12.51
2023-05-06T01:34:43.089Z,12.47
2023-05-06T01:34:56.900Z,12.41
2023-05-06T01:35:16.400Z,12.45
2023-05-06T01:35:31.953Z,12.45
2023-05-06T01:35:50.241Z,12.45
2023-05-06T01:36:08.879Z,12.42
2023-05-06T01:36:25.995Z,12.48
2023-05-06T01:36:41.437Z,12.47
2023-05-06T01:36:57.765Z,12.47
2023-05-06T01:37:14.661Z,12.40
2023-05-06T01:37:27.838Z,12.34
2023-05-06T01:37:42.639Z,12.50
2023-05-06T01:37:59.931Z,12.41
2023-05-06T01:38:19.205Z,12.47
2023-05-06T01:38:35.331Z,12.41
2023-05-06T01:38:48.244Z,12.43
2023-05-06T01:39:03.743Z,12.45
2023-05-06T01:39:16.651Z,12.34
2023-05-06T01:39:26.696Z,12.36
2023-05-06T01:39:34.446Z,12.38
2023-05-06T01:39:46.531Z,12.29
2023-05-06T01:39:58.847Z,12.45
2023-05-06T01:40:07.842Z,12.45
2023-05-06T01:40:16.775Z,12.43
2023-05-06T01:40:27.725Z,12.43
2023-05-06T01:40:36.736Z,12.38
2023-05-06T01:40:47.062Z,12.40
2023-05-06T01:41:07.573Z,12.35
2023-05-06T01:41:17.170Z,12.44
2023-05-06T01:41:26.438Z,12.42
2023-05-06T01:41:34.261Z,12.39
2023-05-06T01:41:43.495Z,12.26
2023-05-06T01:41:54.083Z,12.37
2023-05-06T01:42:12.564Z,12.44
2023-05-06T01:42:22.550Z,12.45
2023-05-06T01:42:34.182Z,12.48
2023-05-06T01:42:42.194Z,12.46
2023-05-06T01:42:49.555Z,12.39
2023-05-06T01:42:57.612Z,12.31
2023-05-06T01:43:16.506Z,12.42
2023-05-06T01:43:28.546Z,12.46
2023-05-06T01:43:41.136Z,12.44
2023-05-06T01:43:53.261Z,12.28
2023-05-06T01:44:01.562Z,12.35
2023-05-06T01:44:11.440Z,12.44
2023-05-06T01:44:24.742Z,12.44
2023-05-06T01:44:34.604Z,12.16
2023-05-06T01:44:44.201Z,12.40
2023-05-06T01:45:02.727Z,12.34
2023-05-06T01:45:13.727Z,12.40
2023-05-06T01:45:22.249Z,12.44
2023-05-06T01:45:31.554Z,12.39
2023-05-06T01:45:40.296Z,12.47
2023-05-06T01:45:54.787Z,12.49
2023-05-06T01:46:06.152Z,12.49
2023-05-06T01:46:17.769Z,12.47
2023-05-06T01:46:25.938Z,12.50
2023-05-06T01:46:33.759Z,12.45
2023-05-06T01:46:44.821Z,12.05
2023-05-06T01:46:54.210Z,12.43
2023-05-06T01:47:10.817Z,12.41
2023-05-06T01:47:18.454Z,12.38
2023-05-06T01:47:26.173Z,12.42
2023-05-06T01:47:34.327Z,12.38
2023-05-06T01:47:44.956Z,12.44
2023-05-06T01:48:00.305Z,12.40
2023-05-06T01:48:16.233Z,12.41
2023-05-06T01:48:26.045Z,12.38
2023-05-06T01:48:35.149Z,12.43
2023-05-06T01:48:43.232Z,12.40
2023-05-06T01:48:54.657Z,12.47
2023-05-06T01:49:06.006Z,12.42
2023-05-06T01:49:17.103Z,12.42
2023-05-06T01:49:29.181Z,12.42
2023-05-06T01:49:36.952Z,12.40
2023-05-06T01:49:44.461Z,12.36
2023-05-06T01:50:02.790Z,12.45
2023-05-06T01:50:11.169Z,12.37
2023-05-06T01:50:18.680Z,12.45
2023-05-06T01:50:34.085Z,12.33
2023-05-06T01:50:41.668Z,12.41
2023-05-06T01:50:49.210Z,12.37
2023-05-06T01:51:08.379Z,12.41
2023-05-06T01:51:15.573Z,12.35
2023-05-06T01:51:23.438Z,12.44
2023-05-06T01:51:40.416Z,12.41
2023-05-06T01:51:49.003Z,12.38
2023-05-06T01:51:56.648Z,12.36
2023-05-06T01:52:11.424Z,12.37
2023-05-06T01:52:18.680Z,12.17
2023-05-06T01:52:26.741Z,12.39
2023-05-06T01:52:43.621Z,12.40
2023-05-06T01:52:58.395Z,12.28
2023-05-06T01:53:05.664Z,12.30
2023-05-06T01:53:15.656Z,12.36
2023-05-06T01:53:22.928Z,12.37
2023-05-06T01:53:30.169Z,12.39
2023-05-06T01:53:44.494Z,12.34
2023-05-06T01:53:58.846Z,12.37
2023-05-06T01:54:06.513Z,12.35
2023-05-06T01:54:21.369Z,12.41
2023-05-06T01:54:28.511Z,12.41
2023-05-06T01:54:38.586Z,12.41
2023-05-06T01:54:47.893Z,12.38
2023-05-06T01:55:02.446Z,12.41
2023-05-06T01:55:10.118Z,12.36
2023-05-06T01:55:26.637Z,12.39
2023-05-06T01:55:36.017Z,12.36
2023-05-06T01:55:43.165Z,12.36
2023-05-06T01:55:50.456Z,12.31
2023-05-06T01:56:09.682Z,12.38
2023-05-06T01:56:18.843Z,12.40
2023-05-06T01:56:29.770Z,12.34
2023-05-06T01:56:36.914Z,12.39
2023-05-06T01:56:44.146Z,12.36
2023-05-06T01:56:51.599Z,12.30
2023-05-06T01:57:13.154Z,12.37
2023-05-06T01:57:20.582Z,12.38
2023-05-06T01:57:36.122Z,12.30
2023-05-06T01:57:46.277Z,12.36
2023-05-06T01:57:56.138Z,12.37
2023-05-06T01:58:04.939Z,12.40
2023-05-06T01:58:23.126Z,12.38
2023-05-06T01:58:30.395Z,12.29
2023-05-06T01:58:40.262Z,12.10
2023-05-06T01:58:49.557Z,12.30
2023-05-06T01:58:58.104Z,12.28
2023-05-06T01:59:07.190Z,12.39
2023-05-06T01:59:24.278Z,12.37
2023-05-06T01:59:32.299Z,12.40
2023-05-06T01:59:46.848Z,12.39
2023-05-06T01:59:54.337Z,12.31
2023-05-06T02:00:02.083Z,12.35
2023-05-06T02:00:19.461Z,12.40
2023-05-06T02:00:26.973Z,12.15
2023-05-06T02:00:34.318Z,12.32
2023-05-06T02:00:52.460Z,12.35
2023-05-06T02:00:59.733Z,12.41
2023-05-06T02:01:06.981Z,12.37
2023-05-06T02:01:21.453Z,12.37
2023-05-06T02:01:28.712Z,12.34
2023-05-06T02:01:35.984Z,12.38
2023-05-06T02:01:57.449Z,12.33
2023-05-06T02:02:05.104Z,12.28
2023-05-06T02:02:15.281Z,12.33
2023-05-06T02:02:25.330Z,12.38
2023-05-06T02:02:35.484Z,12.40
2023-05-06T02:02:42.990Z,12.44
2023-05-06T02:02:58.218Z,12.42
2023-05-06T02:03:06.029Z,12.33
2023-05-06T02:03:21.488Z,12.42
2023-05-06T02:03:29.402Z,12.26
2023-05-06T02:03:37.770Z,12.43
2023-05-06T02:03:45.175Z,12.42
2023-05-06T02:04:02.783Z,12.41
2023-05-06T02:04:10.336Z,12.37
2023-05-06T02:04:25.129Z,12.38
2023-05-06T02:04:32.370Z,12.44
2023-05-06T02:04:39.589Z,12.45
2023-05-06T02:04:47.249Z,12.36
2023-05-06T02:05:09.688Z,12.44
2023-05-06T02:05:22.480Z,12.15
2023-05-06T02:05:36.095Z,12.38
2023-05-06T02:05:46.769Z,12.37
2023-05-06T02:05:54.031Z,12.41
2023-05-06T02:06:01.954Z,12.42
2023-05-06T02:06:12.540Z,12.32
2023-05-06T02:06:27.130Z,12.36
2023-05-06T02:06:43.977Z,12.38
2023-05-06T02:06:53.274Z,12.43
2023-05-06T02:07:02.104Z,12.38
2023-05-06T02:07:09.570Z,12.41
2023-05-06T02:07:19.488Z,12.34
2023-05-06T02:07:33.853Z,12.40
2023-05-06T02:07:48.384Z,12.41
2023-05-06T02:07:55.797Z,12.42
2023-05-06T02:08:03.136Z,12.40
2023-05-06T02:08:10.537Z,12.38
2023-05-06T02:08:20.604Z,12.38
2023-05-06T02:08:34.857Z,12.41
2023-05-06T02:08:56.652Z,12.40
2023-05-06T02:09:05.419Z,12.36
2023-05-06T02:09:16.531Z,12.29
2023-05-06T02:09:29.468Z,12.37
2023-05-06T02:09:41.450Z,12.10
2023-05-06T02:09:51.113Z,12.37
2023-05-06T02:09:58.785Z,12.28
2023-05-06T02:10:07.203Z,12.34
2023-05-06T02:10:28.254Z,12.26
2023-05-06T02:10:42.599Z,12.27
2023-05-06T02:10:50.503Z,12.27
2023-05-06T02:10:58.888Z,12.18
2023-05-06T02:11:06.224Z,12.38
2023-05-06T02:11:13.993Z,12.25
2023-05-06T02:11:31.531Z,12.22
2023-05-06T02:11:43.808Z,12.32
2023-05-06T02:11:50.938Z,12.29
2023-05-06T02:12:08.773Z,12.35
2023-05-06T02:12:18.784Z,12.34
2023-05-06T02:12:26.025Z,12.35
2023-05-06T02:12:34.013Z,12.33
2023-05-06T02:12:48.961Z,12.24
2023-05-06T02:12:56.309Z,12.30
2023-05-06T02:13:11.881Z,12.24
2023-05-06T02:13:19.695Z,12.24
2023-05-06T02:13:27.056Z,12.18
2023-05-06T02:13:34.337Z,12.30
2023-05-06T02:13:51.721Z,12.32
2023-05-06T02:13:59.633Z,12.32
2023-05-06T02:14:15.582Z,12.15
2023-05-06T02:14:22.813Z,12.22
2023-05-06T02:14:30.388Z,12.11
2023-05-06T02:14:39.410Z,12.27
2023-05-06T02:14:53.952Z,12.23
2023-05-06T02:15:01.913Z,12.28
2023-05-06T02:15:17.797Z,12.32
2023-05-06T02:15:25.227Z,12.32
2023-05-06T02:15:36.717Z,12.25
2023-05-06T02:15:44.893Z,12.17
2023-05-06T02:15:56.648Z,12.22
2023-05-06T02:16:04.105Z,12.27
2023-05-06T02:16:20.425Z,12.23
2023-05-06T02:16:28.388Z,12.29
2023-05-06T02:16:44.039Z,12.27
2023-05-06T02:16:51.266Z,12.27
2023-05-06T02:16:58.531Z,12.31
2023-05-06T02:17:05.970Z,12.32
2023-05-06T02:17:26.737Z,12.34
2023-05-06T02:17:35.324Z,12.34
2023-05-06T02:17:43.594Z,12.05
2023-05-06T02:17:59.519Z,12.29
2023-05-06T02:18:07.270Z,12.22
2023-05-06T02:18:15.383Z,12.33
2023-05-06T02:18:30.509Z,11.97
2023-05-06T02:18:40.322Z,12.26
2023-05-06T02:18:47.820Z,12.26
2023-05-06T02:19:02.978Z,12.24
2023-05-06T02:19:10.206Z,12.31
2023-05-06T02:19:17.523Z,12.31
2023-05-06T02:19:31.890Z,12.24
2023-05-06T02:19:46.185Z,12.30
2023-05-06T02:19:53.433Z,12.22
2023-05-06T02:20:09.950Z,12.22
2023-05-06T02:20:17.481Z,12.29
2023-05-06T02:20:24.801Z,12.24
2023-05-06T02:20:34.684Z,12.26
2023-05-06T02:20:55.228Z,12.26
2023-05-06T02:21:03.422Z,12.24
2023-05-06T02:21:17.096Z,12.22
2023-05-06T02:21:26.728Z,12.14
2023-05-06T02:21:33.967Z,12.30
2023-05-06T02:21:41.318Z,11.97
2023-05-06T02:21:56.137Z,12.18
2023-05-06T02:22:06.966Z,12.23
2023-05-06T02:22:18.365Z,12.00
2023-05-06T02:22:33.307Z,12.26
2023-05-06T02:22:42.723Z,12.15
2023-05-06T02:22:52.294Z,12.18
2023-05-06T02:23:01.192Z,12.08
2023-05-06T02:23:09.021Z,11.88
2023-05-06T02:23:28.351Z,12.14
2023-05-06T02:23:38.264Z,12.16
2023-05-06T02:23:45.495Z,12.28
2023-05-06T02:23:57.165Z,12.16
2023-05-06T02:24:04.861Z,12.15
2023-05-06T02:24:12.145Z,12.11
2023-05-06T02:24:36.215Z,12.12
2023-05-06T02:24:43.710Z,11.87
2023-05-06T02:24:50.992Z,12.16
2023-05-06T02:25:05.989Z,12.02
2023-05-06T02:25:13.509Z,11.95
2023-05-06T02:25:24.121Z,12.10
2023-05-06T02:25:41.237Z,12.19
2023-05-06T02:25:48.433Z,12.17
2023-05-06T02:25:56.022Z,11.90
2023-05-06T02:26:13.820Z,12.17
2023-05-06T02:26:22.368Z,12.06
2023-05-06T02:26:29.707Z,12.19
2023-05-06T02:26:47.564Z,12.07
2023-05-06T02:26:54.745Z,11.94